Time;durP1;ratioP1;P1;durP2;ratioP2;P2;SDS_P1;SDS_P2;PMS_P1;PMS_P2;Temp;Humidity;BMP_temperature;BMP_pressure;BME280_temperature;BME280_humidity;BME280_pressure;Samples;Min_cycle;Max_cycle;Signal;HPM_P1;HPM_P2
2023/06/17 00:01:09;;;;;;;37.30;17.40;;;15.60;99.90;;;;;;5115563;28;20068;-80
2023/06/17 00:03:35;;;;;;;36.35;15.45;;;15.60;99.90;;;;;;5097357;28;20043;-80
2023/06/17 00:06:02;;;;;;;32.00;15.88;;;15.50;99.90;;;;;;5114933;28;20398;-79
2023/06/17 00:08:29;;;;;;;29.30;14.52;;;15.60;99.90;;;;;;5114725;28;20051;-79
2023/06/17 00:10:56;;;;;;;35.10;17.15;;;15.50;99.90;;;;;;5114739;28;20051;-80
2023/06/17 00:13:22;;;;;;;31.13;15.18;;;15.50;99.90;;;;;;5115780;28;20519;-80
2023/06/17 00:15:56;;;;;;;30.65;15.88;;;15.40;99.90;;;;;;5115311;28;20035;-80
2023/06/17 00:18:24;;;;;;;32.70;16.67;;;15.50;99.90;;;;;;5101974;28;20032;-80
2023/06/17 00:20:56;;;;;;;33.92;16.50;;;15.40;99.90;;;;;;5093777;28;20466;-81
2023/06/17 00:23:23;;;;;;;38.50;15.85;;;15.40;99.90;;;;;;5094266;28;20116;-80
2023/06/17 00:25:50;;;;;;;33.42;15.65;;;15.30;99.90;;;;;;5094361;28;20044;-80
2023/06/17 00:28:17;;;;;;;35.58;15.75;;;15.30;99.90;;;;;;5094204;28;20110;-80
2023/06/17 00:30:44;;;;;;;32.47;16.10;;;15.30;99.90;;;;;;5091870;28;20071;-80
2023/06/17 00:33:10;;;;;;;32.58;15.98;;;15.30;99.90;;;;;;5094269;28;20052;-80
2023/06/17 00:35:39;;;;;;;33.85;15.02;;;15.10;99.90;;;;;;5093906;28;20047;-80
2023/06/17 00:38:06;;;;;;;26.85;14.00;;;15.10;99.90;;;;;;5093042;28;20061;-80
2023/06/17 00:40:33;;;;;;;25.92;13.38;;;15.10;99.90;;;;;;5077030;28;20083;-80
2023/06/17 00:42:59;;;;;;;25.70;14.30;;;15.10;99.90;;;;;;5077411;28;20066;-81
2023/06/17 00:45:26;;;;;;;33.22;15.13;;;15.10;99.90;;;;;;5075990;28;20059;-80
2023/06/17 00:47:53;;;;;;;27.38;13.00;;;15.00;99.90;;;;;;5093959;28;20058;-80
2023/06/17 00:50:20;;;;;;;27.50;13.40;;;15.00;99.90;;;;;;5092647;28;20437;-80
2023/06/17 00:52:48;;;;;;;27.33;13.30;;;15.00;99.90;;;;;;5094605;28;20035;-80
2023/06/17 00:55:15;;;;;;;32.65;14.00;;;15.00;99.90;;;;;;5077050;28;20485;-79
2023/06/17 00:57:42;;;;;;;30.17;14.73;;;15.00;99.90;;;;;;5093066;28;20339;-79
2023/06/17 01:00:10;;;;;;;30.27;13.93;;;14.90;99.90;;;;;;5093762;28;20064;-79
2023/06/17 01:02:43;;;;;;;30.23;14.95;;;14.90;99.90;;;;;;5094752;28;20119;-79
2023/06/17 01:05:14;;;;;;;26.23;12.00;;;14.90;99.90;;;;;;5093898;28;20126;-79
2023/06/17 01:07:42;;;;;;;25.50;12.45;;;14.90;99.90;;;;;;5077126;28;20097;-79
2023/06/17 01:10:09;;;;;;;26.10;12.85;;;14.90;99.90;;;;;;5093569;28;20054;-80
2023/06/17 01:12:36;;;;;;;21.70;11.60;;;14.80;99.90;;;;;;5075986;28;20075;-80
2023/06/17 01:15:03;;;;;;;26.63;12.30;;;14.80;99.90;;;;;;5093378;28;20040;-80
2023/06/17 01:17:30;;;;;;;25.50;12.13;;;14.80;99.90;;;;;;5061603;28;20045;-81
2023/06/17 01:19:57;;;;;;;28.92;12.68;;;14.80;99.90;;;;;;5074378;28;20459;-80
2023/06/17 01:22:25;;;;;;;28.38;11.77;;;14.80;99.90;;;;;;5072831;28;20144;-80
2023/06/17 01:24:52;;;;;;;26.38;12.40;;;14.70;99.90;;;;;;5072642;28;20040;-80
2023/06/17 01:27:19;;;;;;;28.75;14.38;;;14.70;99.90;;;;;;5073215;28;20044;-80
2023/06/17 01:29:48;;;;;;;32.05;14.25;;;14.60;99.90;;;;;;5073071;28;20094;-81
2023/06/17 01:32:16;;;;;;;30.80;13.63;;;14.40;99.90;;;;;;5072961;28;20478;-80
2023/06/17 01:34:42;;;;;;;32.88;15.55;;;14.30;99.90;;;;;;5073025;28;20052;-80
2023/06/17 01:37:10;;;;;;;29.60;11.60;;;14.20;99.90;;;;;;5072571;28;20041;-80
2023/06/17 01:39:37;;;;;;;23.17;11.35;;;14.20;99.90;;;;;;5073165;28;20094;-79
2023/06/17 01:42:03;;;;;;;28.75;11.50;;;14.20;99.90;;;;;;5075680;28;20048;-80
2023/06/17 01:44:31;;;;;;;30.00;11.32;;;14.20;99.90;;;;;;5059429;28;20037;-80
2023/06/17 01:46:58;;;;;;;21.95;10.70;;;14.20;99.90;;;;;;5078030;28;20047;-80
2023/06/17 01:49:25;;;;;;;23.70;10.60;;;14.20;99.90;;;;;;5077049;28;20474;-80
2023/06/17 01:51:52;;;;;;;22.15;10.50;;;14.30;99.90;;;;;;5076499;28;20032;-80
2023/06/17 01:54:23;;;;;;;23.65;9.90;;;14.20;99.90;;;;;;5060755;28;20082;-79
2023/06/17 01:56:50;;;;;;;24.25;11.60;;;14.20;99.90;;;;;;5076761;28;20052;-80
2023/06/17 01:59:17;;;;;;;25.95;10.82;;;14.20;99.90;;;;;;5076159;28;20048;-80
2023/06/17 02:01:44;;;;;;;21.08;10.23;;;14.20;99.90;;;;;;5076502;28;20040;-81
2023/06/17 02:04:12;;;;;;;23.88;11.60;;;14.10;99.90;;;;;;5076599;28;20051;-80
2023/06/17 02:06:39;;;;;;;22.15;11.00;;;14.10;99.90;;;;;;5076315;28;20068;-80
2023/06/17 02:09:06;;;;;;;22.55;10.77;;;14.00;99.90;;;;;;5076604;28;20040;-79
2023/06/17 02:11:33;;;;;;;24.45;10.93;;;14.00;99.90;;;;;;5076577;28;20118;-80
2023/06/17 02:14:00;;;;;;;24.23;10.88;;;13.90;99.90;;;;;;5076383;28;20094;-80
2023/06/17 02:16:27;;;;;;;22.05;10.32;;;13.80;99.90;;;;;;5060083;28;20040;-80
2023/06/17 02:18:55;;;;;;;24.95;10.57;;;13.80;99.90;;;;;;5075637;28;20118;-80
2023/06/17 02:21:23;;;;;;;18.75;9.55;;;13.80;99.90;;;;;;5076040;28;20459;-80
2023/06/17 02:23:50;;;;;;;25.52;11.27;;;13.80;99.90;;;;;;5059014;28;20114;-79
2023/06/17 02:29:05;;;;;;;28.65;12.23;;;13.80;99.90;;;;;;5076902;28;20040;-80
2023/06/17 02:31:32;;;;;;;25.05;10.70;;;13.70;99.90;;;;;;5058735;28;20040;-79
2023/06/17 02:33:59;;;;;;;25.17;9.45;;;13.60;99.90;;;;;;5073707;28;20045;-80
2023/06/17 02:36:26;;;;;;;19.48;9.48;;;13.60;99.90;;;;;;5039576;28;20037;-80
2023/06/17 02:38:52;;;;;;;23.40;10.02;;;13.60;99.90;;;;;;5038624;28;20399;-80
2023/06/17 02:41:19;;;;;;;20.77;10.65;;;13.60;99.90;;;;;;5056767;28;20475;-81
2023/06/17 02:43:46;;;;;;;21.73;10.02;;;13.50;99.90;;;;;;5038633;28;20055;-80
2023/06/17 02:46:16;;;;;;;21.13;10.02;;;13.50;99.90;;;;;;5039461;28;20098;-80
2023/06/17 02:48:44;;;;;;;23.88;9.40;;;13.40;99.90;;;;;;5039315;28;20079;-80
2023/06/17 02:51:12;;;;;;;20.35;9.95;;;13.40;99.90;;;;;;5037976;28;20055;-80
2023/06/17 02:53:38;;;;;;;20.55;9.48;;;13.30;99.90;;;;;;5038328;28;20045;-80
2023/06/17 02:56:06;;;;;;;25.65;10.45;;;13.30;99.90;;;;;;5039099;28;20415;-80
2023/06/17 02:58:34;;;;;;;19.55;9.43;;;13.30;99.90;;;;;;5038141;28;20119;-80
2023/06/17 03:01:01;;;;;;;26.23;10.18;;;13.20;99.90;;;;;;5038947;28;20147;-80
2023/06/17 03:03:33;;;;;;;21.33;8.82;;;13.30;99.90;;;;;;5023015;28;20136;-80
2023/06/17 03:06:02;;;;;;;22.52;9.90;;;13.30;99.90;;;;;;5038760;28;20053;-80
2023/06/17 03:08:32;;;;;;;23.73;11.05;;;13.30;99.90;;;;;;5022825;28;20041;-81
2023/06/17 03:10:59;;;;;;;18.80;9.13;;;13.20;99.90;;;;;;5055418;28;20048;-80
2023/06/17 03:13:28;;;;;;;21.98;9.38;;;13.20;99.90;;;;;;5038623;28;20053;-80
2023/06/17 03:15:55;;;;;;;21.85;9.82;;;13.10;99.90;;;;;;5038680;28;20065;-80
2023/06/17 03:18:23;;;;;;;18.60;8.93;;;13.10;99.90;;;;;;5038283;28;20037;-81
2023/06/17 03:20:50;;;;;;;20.88;9.55;;;13.10;99.90;;;;;;5038110;28;20088;-80
2023/06/17 03:23:17;;;;;;;21.42;9.15;;;13.10;99.90;;;;;;5038640;28;20051;-80
2023/06/17 03:25:45;;;;;;;21.40;8.75;;;13.00;99.90;;;;;;5037682;28;20384;-80
2023/06/17 03:28:12;;;;;;;20.58;9.60;;;12.90;99.90;;;;;;5038367;28;20075;-80
2023/06/17 03:30:42;;;;;;;22.27;9.25;;;12.90;99.90;;;;;;5037756;28;20041;-81
2023/06/17 03:33:09;;;;;;;19.60;9.15;;;12.80;99.90;;;;;;5038456;28;20426;-80
2023/06/17 03:35:37;;;;;;;20.20;9.80;;;12.80;99.90;;;;;;5065917;28;20483;-80
2023/06/17 03:38:04;;;;;;;18.73;8.82;;;12.70;99.90;;;;;;5057630;28;20371;-80
2023/06/17 03:40:31;;;;;;;22.77;8.80;;;12.80;99.90;;;;;;5074555;28;20062;-80
2023/06/17 03:43:00;;;;;;;19.27;8.75;;;12.80;99.90;;;;;;5074766;28;20045;-80
2023/06/17 03:45:30;;;;;;;19.95;9.20;;;12.80;99.90;;;;;;5073802;28;20044;-80
2023/06/17 03:47:58;;;;;;;;;;;12.80;99.90;;;;;;5075168;28;20481;-80
2023/06/17 03:50:25;;;;;;;16.15;7.40;;;12.80;99.90;;;;;;5074238;28;19920;-80
2023/06/17 03:52:53;;;;;;;18.17;8.40;;;12.70;99.90;;;;;;5074604;28;20475;-80
2023/06/17 03:58:07;;;;;;;21.65;8.80;;;12.70;99.90;;;;;;5073523;28;20048;-79
2023/06/17 04:00:33;;;;;;;19.73;7.78;;;12.70;99.90;;;;;;5074201;28;20131;-80
2023/06/17 04:03:01;;;;;;;17.98;7.55;;;12.70;99.90;;;;;;5074460;28;20478;-80
2023/06/17 04:05:33;;;;;;;19.92;8.32;;;12.70;99.90;;;;;;5056644;28;20044;-80
2023/06/17 04:08:02;;;;;;;20.95;8.32;;;12.70;99.90;;;;;;5074346;28;20041;-79
2023/06/17 04:10:29;;;;;;;22.20;8.27;;;12.80;99.90;;;;;;5072918;28;20360;-80
2023/06/17 04:12:56;;;;;;;17.40;7.82;;;12.80;99.90;;;;;;5073636;28;20421;-79
2023/06/17 04:15:25;;;;;;;15.40;7.82;;;12.80;99.90;;;;;;5074123;28;20414;-79
2023/06/17 04:17:52;;;;;;;15.50;7.55;;;12.80;99.90;;;;;;5073103;28;20044;-80
2023/06/17 04:20:25;;;;;;;18.60;7.60;;;12.80;99.90;;;;;;5090543;28;20127;-80
2023/06/17 04:22:52;;;;;;;20.38;7.40;;;12.80;99.90;;;;;;5074108;28;20387;-80
2023/06/17 04:25:20;;;;;;;17.88;7.50;;;12.80;99.90;;;;;;5090006;28;20111;-80
2023/06/17 04:27:53;;;;;;;16.02;6.78;;;12.90;99.90;;;;;;5073890;28;20472;-80
2023/06/17 04:30:21;;;;;;;15.90;7.75;;;13.00;99.90;;;;;;5089226;28;20043;-80
2023/06/17 04:32:50;;;;;;;16.10;8.25;;;13.10;99.90;;;;;;5073877;28;20355;-80
2023/06/17 04:35:18;;;;;;;16.85;7.72;;;13.10;99.90;;;;;;5073376;28;20145;-80
2023/06/17 04:37:53;;;;;;;22.85;9.38;;;13.20;99.90;;;;;;5090031;28;20428;-80
2023/06/17 04:40:21;;;;;;;18.08;8.30;;;13.30;99.90;;;;;;5073698;28;20048;-80
2023/06/17 04:42:49;;;;;;;18.83;8.73;;;13.30;99.90;;;;;;5074669;28;20041;-79
2023/06/17 04:48:05;;;;;;;18.77;8.38;;;13.60;99.90;;;;;;5073762;28;20052;-79
2023/06/17 04:50:33;;;;;;;22.77;8.73;;;13.70;99.90;;;;;;5072667;28;20463;-80
2023/06/17 04:53:03;;;;;;;18.75;8.50;;;13.90;99.90;;;;;;5073745;28;20052;-80
2023/06/17 04:55:35;;;;;;;17.60;7.82;;;14.00;99.90;;;;;;5073330;28;20752;-79
2023/06/17 04:58:03;;;;;;;17.33;8.27;;;14.10;99.90;;;;;;5073134;28;20095;-80
2023/06/17 05:00:42;;;;;;;17.75;8.63;;;14.20;99.90;;;;;;5073424;28;20394;-80
2023/06/17 05:03:13;;;;;;;22.20;8.90;;;14.20;99.90;;;;;;5073353;28;20072;-81
2023/06/17 05:05:42;;;;;;;18.08;9.10;;;14.20;99.90;;;;;;5089440;28;20122;-80
2023/06/17 05:08:08;;;;;;;17.70;8.13;;;14.20;99.90;;;;;;5073258;28;20542;-80
2023/06/17 05:10:35;;;;;;;19.98;8.55;;;14.50;99.90;;;;;;5088834;28;20064;-81
2023/06/17 05:13:02;;;;;;;17.40;8.07;;;14.70;99.90;;;;;;5090219;28;20032;-80
2023/06/17 05:15:32;;;;;;;20.88;9.50;;;14.90;99.90;;;;;;5073386;28;20044;-80
2023/06/17 05:17:59;;;;;;;18.02;9.00;;;15.00;99.90;;;;;;5096435;28;20484;-80
2023/06/17 05:20:26;;;;;;;20.88;8.75;;;15.10;99.90;;;;;;5097597;28;20028;-80
2023/06/17 05:22:53;;;;;;;18.80;8.25;;;15.20;99.90;;;;;;5097873;28;20114;-81
2023/06/17 05:25:20;;;;;;;19.15;8.80;;;15.20;99.90;;;;;;5079903;28;20040;-80
2023/06/17 05:27:48;;;;;;;17.90;9.25;;;15.40;99.90;;;;;;5097439;28;20536;-81
2023/06/17 05:30:15;;;;;;;19.83;8.60;;;15.40;99.90;;;;;;5080088;28;20477;-80
2023/06/17 05:32:45;;;;;;;16.17;8.57;;;15.40;99.90;;;;;;5097434;28;20048;-81
2023/06/17 05:35:14;;;;;;;20.67;8.70;;;15.40;99.90;;;;;;5081846;28;20052;-81
2023/06/17 05:37:42;;;;;;;16.05;7.78;;;15.40;99.90;;;;;;5099589;28;20047;-80
2023/06/17 05:40:08;;;;;;;18.75;7.90;;;15.50;99.90;;;;;;5084187;28;20068;-81
2023/06/17 05:42:36;;;;;;;16.95;7.88;;;15.50;99.90;;;;;;5097364;28;20548;-80
2023/06/17 05:45:04;;;;;;;16.75;6.80;;;15.60;99.90;;;;;;5096039;28;20123;-81
2023/06/17 05:47:31;;;;;;;22.40;8.48;;;15.60;99.90;;;;;;5096803;28;20072;-79
2023/06/17 05:49:58;;;;;;;18.48;7.43;;;15.70;99.90;;;;;;5097942;28;20054;-80
2023/06/17 05:52:26;;;;;;;17.90;7.00;;;15.80;99.90;;;;;;5096171;28;20433;-80
2023/06/17 05:54:53;;;;;;;15.93;6.10;;;15.90;99.90;;;;;;5079891;28;20046;-80
2023/06/17 05:57:21;;;;;;;13.80;6.32;;;16.00;99.90;;;;;;5096958;28;20040;-80
2023/06/17 05:59:48;;;;;;;11.90;6.20;;;16.00;99.90;;;;;;5092799;28;20032;-80
2023/06/17 06:02:14;;;;;;;17.10;5.82;;;16.00;99.90;;;;;;5096678;28;20058;-81
2023/06/17 06:04:41;;;;;;;12.13;6.18;;;16.00;99.90;;;;;;5097377;28;20048;-81
2023/06/17 06:07:08;;;;;;;13.48;5.57;;;16.00;99.90;;;;;;5097885;28;20044;-81
2023/06/17 06:09:35;;;;;;;13.07;6.03;;;16.00;99.90;;;;;;5097729;28;20047;-81
2023/06/17 06:12:02;;;;;;;16.60;5.88;;;16.00;99.90;;;;;;5096751;28;20120;-81
2023/06/17 06:14:30;;;;;;;12.57;6.10;;;16.10;99.90;;;;;;5076174;28;20059;-82
2023/06/17 06:16:58;;;;;;;12.40;5.63;;;16.00;99.90;;;;;;5085140;28;20932;-80
2023/06/17 06:19:26;;;;;;;10.68;4.88;;;16.10;99.90;;;;;;5093226;28;20036;-82
2023/06/17 06:21:53;;;;;;;18.23;6.20;;;16.20;99.90;;;;;;5065341;28;20470;-81
2023/06/17 06:24:20;;;;;;;13.60;5.38;;;16.20;99.90;;;;;;5075420;28;20037;-82
2023/06/17 06:26:47;;;;;;;17.27;6.35;;;16.20;99.90;;;;;;5079778;28;20040;-82
2023/06/17 06:29:15;;;;;;;14.45;5.85;;;16.30;99.90;;;;;;5070463;28;20429;-82
2023/06/17 06:31:43;;;;;;;13.18;5.57;;;16.40;99.90;;;;;;5078927;28;20053;-81
2023/06/17 06:34:12;;;;;;;14.52;5.97;;;16.50;99.90;;;;;;5080840;28;20055;-82
2023/06/17 06:36:39;;;;;;;15.25;5.88;;;16.70;99.90;;;;;;5076026;28;20175;-81
2023/06/17 06:39:06;;;;;;;11.35;5.35;;;16.80;99.90;;;;;;5077746;28;20071;-81
2023/06/17 06:41:33;;;;;;;13.15;6.10;;;16.90;99.90;;;;;;5096045;28;20039;-81
2023/06/17 06:44:16;;;;;;;12.98;5.25;;;17.10;99.90;;;;;;5095850;28;20374;-83
2023/06/17 06:46:43;;;;;;;10.05;5.28;;;17.30;99.90;;;;;;5096013;28;20131;-82
2023/06/17 06:49:10;;;;;;;12.93;5.90;;;17.40;99.90;;;;;;5073911;28;20425;-81
2023/06/17 06:51:37;;;;;;;17.60;6.80;;;17.60;99.90;;;;;;5087667;28;20044;-83
2023/06/17 06:54:04;;;;;;;13.32;6.07;;;17.70;99.90;;;;;;5091203;28;20059;-81
2023/06/17 06:56:31;;;;;;;13.93;6.03;;;17.80;99.90;;;;;;5075525;28;20048;-83
2023/06/17 06:58:58;;;;;;;11.48;5.30;;;17.90;99.90;;;;;;5058532;28;20072;-85
2023/06/17 07:01:26;;;;;;;16.90;5.63;;;18.10;99.90;;;;;;5070883;28;20393;-83
2023/06/17 07:03:54;;;;;;;13.40;5.30;;;18.40;99.90;;;;;;5024444;23;20373;-79
2023/06/17 07:06:25;;;;;;;13.45;5.47;;;18.50;99.90;;;;;;4987507;28;20054;-78
2023/06/17 07:08:52;;;;;;;15.25;5.45;;;18.60;99.90;;;;;;5002198;28;20046;-77
2023/06/17 07:11:20;;;;;;;16.92;5.15;;;18.60;99.90;;;;;;4995208;28;20051;-77
2023/06/17 07:13:47;;;;;;;13.63;5.40;;;18.70;99.90;;;;;;4995813;28;20451;-76
2023/06/17 07:16:14;;;;;;;10.25;4.97;;;18.80;99.90;;;;;;4996112;28;20046;-77
2023/06/17 07:18:41;;;;;;;9.98;5.13;;;18.80;99.90;;;;;;4998080;28;20424;-77
2023/06/17 07:21:08;;;;;;;10.32;4.70;;;18.80;99.90;;;;;;4995491;28;20046;-77
2023/06/17 07:23:35;;;;;;;13.43;5.00;;;19.00;99.90;;;;;;5006501;28;20053;-76
2023/06/17 07:26:03;;;;;;;13.32;5.00;;;19.20;99.90;;;;;;4996312;28;20050;-76
2023/06/17 07:28:31;;;;;;;9.32;4.53;;;19.40;99.90;;;;;;4996420;28;20049;-76
2023/06/17 07:30:59;;;;;;;15.40;4.72;;;19.50;99.90;;;;;;4994141;28;20050;-77
2023/06/17 07:33:26;;;;;;;15.07;4.53;;;19.70;99.90;;;;;;4995606;28;20049;-76
2023/06/17 07:35:52;;;;;;;16.63;5.10;;;20.00;99.90;;;;;;4995770;28;20042;-80
2023/06/17 07:38:19;;;;;;;12.45;4.45;;;20.20;99.90;;;;;;4994289;28;20145;-76
2023/06/17 07:40:46;;;;;;;12.00;4.28;;;20.40;99.90;;;;;;4995059;28;20050;-78
2023/06/17 07:43:13;;;;;;;11.60;3.95;;;20.40;99.90;;;;;;4995428;28;20423;-77
2023/06/17 07:45:40;;;;;;;10.50;4.07;;;20.70;99.90;;;;;;4994429;28;20054;-77
2023/06/17 07:48:07;;;;;;;10.18;4.22;;;20.90;99.90;;;;;;4996349;28;20434;-76
2023/06/17 07:50:33;;;;;;;13.43;3.92;;;21.00;99.90;;;;;;4995191;28;20130;-77
2023/06/17 07:53:00;;;;;;;12.27;4.32;;;21.20;99.90;;;;;;4996093;28;20070;-76
2023/06/17 07:55:28;;;;;;;16.88;3.75;;;21.30;99.90;;;;;;4995852;28;20058;-77
2023/06/17 07:57:55;;;;;;;11.27;4.30;;;21.20;99.90;;;;;;4995154;28;20126;-78
2023/06/17 08:00:22;;;;;;;8.73;3.88;;;21.20;99.90;;;;;;4995886;28;20053;-79
2023/06/17 08:02:49;;;;;;;11.10;3.97;;;21.20;99.90;;;;;;5008100;28;20094;-79
2023/06/17 08:05:17;;;;;;;10.25;3.92;;;21.20;99.90;;;;;;4974881;28;20038;-79
2023/06/17 08:07:44;;;;;;;10.88;3.90;;;21.40;99.90;;;;;;4976347;28;20528;-79
2023/06/17 08:10:10;;;;;;;9.82;3.97;;;21.60;99.90;;;;;;4976405;28;20042;-79
2023/06/17 08:12:37;;;;;;;8.90;4.03;;;21.70;99.90;;;;;;4975712;28;20046;-79
2023/06/17 08:15:05;;;;;;;9.23;4.03;;;21.90;99.90;;;;;;4976080;28;20052;-77
2023/06/17 08:17:31;;;;;;;8.75;3.85;;;22.20;99.90;;;;;;4975394;28;20039;-78
2023/06/17 08:19:58;;;;;;;9.45;3.78;;;22.20;99.90;;;;;;4975575;28;20042;-78
2023/06/17 08:22:25;;;;;;;10.52;4.25;;;22.40;99.90;;;;;;4976013;28;20042;-79
2023/06/17 08:24:53;;;;;;;10.93;4.15;;;22.60;99.90;;;;;;4975301;28;20046;-78
2023/06/17 08:27:20;;;;;;;9.25;3.70;;;22.60;99.90;;;;;;4976218;28;20039;-78
2023/06/17 08:29:46;;;;;;;15.05;4.20;;;22.80;99.90;;;;;;4975928;28;20078;-78
2023/06/17 08:32:13;;;;;;;16.27;4.28;;;22.80;99.90;;;;;;4974067;28;20074;-78
2023/06/17 08:34:41;;;;;;;10.45;3.90;;;22.60;99.90;;;;;;4974575;28;20114;-78
2023/06/17 08:37:08;;;;;;;12.65;3.63;;;22.70;99.90;;;;;;4974796;28;20053;-79
2023/06/17 08:39:39;;;;;;;8.27;3.60;;;22.70;99.90;;;;;;4975908;28;20047;-78
2023/06/17 08:42:09;;;;;;;11.75;3.58;;;22.80;99.90;;;;;;4974956;28;20133;-78
2023/06/17 08:44:37;;;;;;;10.95;3.70;;;23.00;99.90;;;;;;4974569;28;20070;-79
2023/06/17 08:47:04;;;;;;;13.82;4.45;;;23.00;99.90;;;;;;4975823;28;20043;-80
2023/06/17 08:49:31;;;;;;;22.92;4.13;;;23.10;99.90;;;;;;4975981;28;20042;-80
2023/06/17 08:51:58;;;;;;;8.43;3.83;;;22.80;99.90;;;;;;4974065;28;20047;-80
2023/06/17 08:54:24;;;;;;;10.88;4.00;;;23.10;99.90;;;;;;4975743;28;20070;-80
2023/06/17 08:56:53;;;;;;;13.65;3.90;;;23.10;99.90;;;;;;4975741;28;20074;-78
2023/06/17 08:59:20;;;;;;;9.93;4.13;;;23.30;99.90;;;;;;4975643;28;20101;-79
2023/06/17 09:01:47;;;;;;;9.60;3.95;;;23.30;99.90;;;;;;4975734;28;20421;-79
2023/06/17 09:04:14;;;;;;;8.45;3.40;;;23.40;99.90;;;;;;4988793;28;20046;-79
2023/06/17 09:06:40;;;;;;;10.07;3.88;;;23.70;99.90;;;;;;5010704;28;20047;-79
2023/06/17 09:09:07;;;;;;;11.57;4.43;;;23.80;99.90;;;;;;4994907;28;20065;-80
2023/06/17 09:11:34;;;;;;;9.98;3.70;;;24.20;99.90;;;;;;5009541;28;20376;-77
2023/06/17 09:14:00;;;;;;;10.75;4.40;;;24.40;99.90;;;;;;4994836;28;20121;-81
2023/06/17 09:16:27;;;;;;;8.68;4.25;;;24.60;99.90;;;;;;4995129;28;20046;-79
2023/06/17 09:18:55;;;;;;;11.05;4.57;;;24.70;99.90;;;;;;4994170;28;20070;-79
2023/06/17 09:21:21;;;;;;;8.95;4.57;;;24.90;99.90;;;;;;4994131;28;20409;-80
2023/06/17 09:23:48;;;;;;;10.55;4.70;;;25.20;99.90;;;;;;4993061;28;20066;-79
2023/06/17 09:26:15;;;;;;;9.82;4.50;;;25.30;99.90;;;;;;4994808;28;20038;-79
2023/06/17 09:28:41;;;;;;;12.40;5.35;;;25.50;99.90;;;;;;4993565;28;20070;-78
2023/06/17 09:31:09;;;;;;;11.35;5.00;;;25.50;99.90;;;;;;4992784;28;20160;-78
2023/06/17 09:33:36;;;;;;;10.63;5.05;;;25.50;99.90;;;;;;4991841;28;20137;-78
2023/06/17 09:36:04;;;;;;;10.40;4.43;;;25.50;99.90;;;;;;4992194;28;20050;-78
2023/06/17 09:38:34;;;;;;;10.30;4.80;;;25.30;99.90;;;;;;4991754;28;20075;-78
2023/06/17 09:41:00;;;;;;;13.75;4.68;;;25.40;99.90;;;;;;4992318;28;20527;-78
2023/06/17 09:43:27;;;;;;;11.35;4.68;;;25.50;99.90;;;;;;4993261;28;20468;-78
2023/06/17 09:45:55;;;;;;;11.50;5.80;;;25.50;99.90;;;;;;4991661;28;20042;-78
2023/06/17 09:48:24;;;;;;;13.23;5.03;;;25.50;99.90;;;;;;4992637;28;20050;-78
2023/06/17 09:50:52;;;;;;;13.75;5.15;;;25.10;99.90;;;;;;4992714;28;20057;-78
2023/06/17 09:53:19;;;;;;;15.15;6.70;;;25.00;99.90;;;;;;4992951;28;20547;-77
2023/06/17 09:55:46;;;;;;;14.75;5.80;;;24.80;99.90;;;;;;4993095;28;20109;-78
2023/06/17 09:58:14;;;;;;;12.10;5.10;;;24.50;99.90;;;;;;4990981;28;20117;-77
2023/06/17 10:00:41;;;;;;;19.55;6.30;;;24.40;99.90;;;;;;4992526;28;20465;-77
2023/06/17 10:03:08;;;;;;;20.65;6.47;;;24.50;99.90;;;;;;4995347;28;20093;-77
2023/06/17 10:05:35;;;;;;;12.38;5.95;;;24.50;99.90;;;;;;4995460;28;20038;-79
2023/06/17 10:08:02;;;;;;;13.35;5.22;;;24.50;99.90;;;;;;4996604;28;20548;-78
2023/06/17 10:10:29;;;;;;;10.38;4.97;;;24.60;99.90;;;;;;4993710;28;20716;-78
2023/06/17 10:12:56;;;;;;;12.80;5.95;;;24.80;99.90;;;;;;4996988;28;20054;-78
2023/06/17 10:15:22;;;;;;;18.10;5.55;;;24.90;99.90;;;;;;4996027;28;20130;-78
2023/06/17 10:17:50;;;;;;;19.10;6.47;;;25.20;99.90;;;;;;5010633;28;20144;-78
2023/06/17 10:20:17;;;;;;;16.48;7.57;;;25.00;99.90;;;;;;4996549;28;20042;-78
2023/06/17 10:22:44;;;;;;;14.57;7.20;;;25.10;99.90;;;;;;4995730;28;20634;-78
2023/06/17 10:25:11;;;;;;;12.93;6.63;;;25.30;99.90;;;;;;4995157;28;20465;-78
2023/06/17 10:27:37;;;;;;;15.68;7.32;;;25.50;99.90;;;;;;4995295;28;20448;-78
2023/06/17 10:30:04;;;;;;;16.05;7.30;;;26.20;99.90;;;;;;4995920;28;20050;-78
2023/06/17 10:32:31;;;;;;;16.33;7.05;;;26.80;99.90;;;;;;4992563;28;20141;-78
2023/06/17 10:34:58;;;;;;;11.40;7.32;;;27.20;99.90;;;;;;4996006;28;20108;-80
2023/06/17 10:37:25;;;;;;;12.15;7.03;;;27.70;99.90;;;;;;4994465;28;20500;-78
2023/06/17 10:39:51;;;;;;;13.52;6.28;;;27.70;99.90;;;;;;4983357;28;20097;-79
2023/06/17 10:42:18;;;;;;;30.65;7.50;;;27.60;99.90;;;;;;4996789;28;20093;-79
2023/06/17 10:44:46;;;;;;;11.35;6.78;;;27.70;99.90;;;;;;4995080;28;20721;-80
2023/06/17 10:47:16;;;;;;;13.13;6.95;;;27.80;99.90;;;;;;4996359;28;20153;-79
2023/06/17 10:49:43;;;;;;;14.60;6.70;;;28.00;99.40;;;;;;4996747;28;20089;-80
2023/06/17 10:52:09;;;;;;;12.50;6.18;;;28.40;99.30;;;;;;4995111;28;20053;-79
2023/06/17 10:54:36;;;;;;;10.63;5.80;;;28.70;98.40;;;;;;4996446;28;20053;-79
2023/06/17 10:57:04;;;;;;;10.65;5.97;;;28.80;98.20;;;;;;4995781;28;20457;-80
2023/06/17 10:59:31;;;;;;;9.70;5.65;;;29.30;97.70;;;;;;4988556;28;20097;-80
2023/06/17 11:01:58;;;;;;;11.27;5.40;;;30.20;97.10;;;;;;4991822;28;20047;-80
2023/06/17 11:04:25;;;;;;;10.10;5.10;;;30.20;95.20;;;;;;4995516;28;20058;-80
2023/06/17 11:06:51;;;;;;;18.60;5.80;;;30.40;94.90;;;;;;4996181;28;20770;-77
2023/06/17 11:09:18;;;;;;;9.50;5.70;;;30.50;93.50;;;;;;4980988;28;20121;-79
2023/06/17 11:11:45;;;;;;;11.10;6.03;;;30.00;93.00;;;;;;4975914;28;20050;-76
2023/06/17 11:14:12;;;;;;;9.85;5.95;;;29.30;92.70;;;;;;4965325;28;20067;-78
2023/06/17 11:16:38;;;;;;;11.75;6.53;;;29.60;93.60;;;;;;4959715;28;20047;-79
2023/06/17 11:19:05;;;;;;;11.07;6.30;;;29.90;92.30;;;;;;4975359;28;20050;-79
2023/06/17 11:21:32;;;;;;;9.18;6.20;;;30.10;92.10;;;;;;4958576;28;20461;-78
2023/06/17 11:23:59;;;;;;;9.07;5.82;;;30.10;91.60;;;;;;4975080;28;20081;-77
2023/06/17 11:26:27;;;;;;;10.70;6.30;;;30.10;91.00;;;;;;4943393;28;20047;-78
2023/06/17 11:28:53;;;;;;;11.63;6.28;;;30.10;90.80;;;;;;4975392;28;20042;-78
2023/06/17 11:31:25;;;;;;;11.15;6.68;;;30.10;90.70;;;;;;4974138;28;20480;-78
2023/06/17 11:33:52;;;;;;;9.48;6.13;;;29.90;89.80;;;;;;4975384;28;20055;-78
2023/06/17 11:36:19;;;;;;;10.90;5.35;;;29.60;90.50;;;;;;4959049;28;20078;-77
2023/06/17 11:38:48;;;;;;;9.68;5.10;;;30.20;91.10;;;;;;4972697;28;20043;-76
2023/06/17 11:41:15;;;;;;;15.30;5.65;;;31.40;90.20;;;;;;4975822;28;20039;-77
2023/06/17 11:43:42;;;;;;;14.07;5.65;;;32.00;85.90;;;;;;4969465;28;20058;-76
2023/06/17 11:46:09;;;;;;;10.35;5.25;;;31.90;86.10;;;;;;4969641;28;20537;-76
2023/06/17 11:48:36;;;;;;;18.90;5.85;;;32.10;85.20;;;;;;4988490;28;20057;-76
2023/06/17 11:51:03;;;;;;;12.05;5.70;;;32.60;83.10;;;;;;4995204;28;20077;-78
2023/06/17 11:53:29;;;;;;;11.90;6.20;;;32.50;82.20;;;;;;4979154;28;20042;-81
2023/06/17 11:55:56;;;;;;;11.05;6.72;;;32.90;81.30;;;;;;4996105;28;20077;-82
2023/06/17 11:58:25;;;;;;;13.15;5.57;;;32.90;79.80;;;;;;4975697;28;20117;-78
2023/06/17 12:00:52;;;;;;;11.27;6.00;;;33.10;79.20;;;;;;4975249;28;20362;-80
2023/06/17 12:03:19;;;;;;;11.07;5.97;;;33.40;79.00;;;;;;4983421;28;20054;-80
2023/06/17 12:05:46;;;;;;;10.82;5.80;;;33.80;77.00;;;;;;4994895;28;20038;-78
2023/06/17 12:08:13;;;;;;;11.90;6.30;;;33.20;77.00;;;;;;4995875;28;20077;-79
2023/06/17 12:10:40;;;;;;;9.63;5.70;;;33.30;77.60;;;;;;4995113;28;20065;-78
2023/06/17 12:13:07;;;;;;;9.95;6.10;;;34.00;76.90;;;;;;4995786;28;20046;-79
2023/06/17 12:15:33;;;;;;;12.90;6.00;;;34.70;73.70;;;;;;4995298;28;20077;-78
2023/06/17 12:18:03;;;;;;;12.77;5.57;;;34.60;74.00;;;;;;4994857;28;20096;-79
2023/06/17 12:20:31;;;;;;;9.93;5.85;;;34.70;72.00;;;;;;4995112;28;20368;-78
2023/06/17 12:22:57;;;;;;;10.23;5.90;;;34.10;71.10;;;;;;4995475;28;20130;-78
2023/06/17 12:25:24;;;;;;;14.30;6.70;;;34.40;72.00;;;;;;4994051;28;20134;-78
2023/06/17 12:27:51;;;;;;;11.13;5.53;;;34.00;71.20;;;;;;4995393;28;20436;-78
2023/06/17 12:30:18;;;;;;;16.60;6.35;;;33.80;72.50;;;;;;5010323;28;20116;-78
2023/06/17 12:32:45;;;;;;;110.72;13.77;;;33.20;72.90;;;;;;4995557;28;20436;-78
2023/06/17 12:35:14;;;;;;;36.47;9.88;;;33.00;73.30;;;;;;4995051;28;20038;-78
2023/06/17 12:37:41;;;;;;;23.48;7.50;;;33.30;73.00;;;;;;4994637;28;20101;-78
2023/06/17 12:40:08;;;;;;;13.07;6.10;;;34.00;72.70;;;;;;4995327;28;20050;-79
2023/06/17 12:42:36;;;;;;;17.80;6.90;;;34.00;72.10;;;;;;4995019;28;20038;-77
2023/06/17 12:45:03;;;;;;;14.88;6.78;;;34.00;71.20;;;;;;4994245;28;20042;-78